sensor_id;sensor_type;location;lat;lon;timestamp;pressure;altitude;pressure_sealevel;temperature;humidity
48035;BME280;33812;46.480;6.834;2023-04-19T00:03:16;93779.03;;;22.12;38.74
48035;BME280;33812;46.480;6.834;2023-04-19T00:07:19;93780.22;;;22.10;38.75
48035;BME280;33812;46.480;6.834;2023-04-19T00:11:21;93785.31;;;22.12;38.73
48035;BME280;33812;46.480;6.834;2023-04-19T00:15:23;93788.00;;;22.03;38.73
48035;BME280;33812;46.480;6.834;2023-04-19T00:19:25;93784.91;;;22.01;38.80
48035;BME280;33812;46.480;6.834;2023-04-19T00:23:28;93781.69;;;22.02;38.72
48035;BME280;33812;46.480;6.834;2023-04-19T00:27:31;93783.66;;;22.02;38.86
48035;BME280;33812;46.480;6.834;2023-04-19T00:31:32;93781.69;;;22.02;38.74
48035;BME280;33812;46.480;6.834;2023-04-19T00:35:34;93771.50;;;21.99;38.49
48035;BME280;33812;46.480;6.834;2023-04-19T00:39:37;93782.91;;;22.01;38.52
48035;BME280;33812;46.480;6.834;2023-04-19T00:43:39;93778.56;;;22.00;38.50
48035;BME280;33812;46.480;6.834;2023-04-19T00:47:41;93784.13;;;22.00;38.51
48035;BME280;33812;46.480;6.834;2023-04-19T00:51:43;93784.56;;;21.98;38.59
48035;BME280;33812;46.480;6.834;2023-04-19T00:55:46;93788.56;;;21.97;38.52
48035;BME280;33812;46.480;6.834;2023-04-19T00:59:50;93783.03;;;21.97;38.53
48035;BME280;33812;46.480;6.834;2023-04-19T01:03:52;93785.56;;;21.92;38.67
48035;BME280;33812;46.480;6.834;2023-04-19T01:07:54;93774.50;;;21.92;38.63
48035;BME280;33812;46.480;6.834;2023-04-19T01:12:00;93773.72;;;21.91;38.66
48035;BME280;33812;46.480;6.834;2023-04-19T01:16:03;93777.72;;;21.90;38.51
48035;BME280;33812;46.480;6.834;2023-04-19T01:20:06;93777.81;;;21.86;38.60
48035;BME280;33812;46.480;6.834;2023-04-19T01:24:09;93778.16;;;21.89;38.55
48035;BME280;33812;46.480;6.834;2023-04-19T01:28:11;93772.28;;;21.86;38.38
48035;BME280;33812;46.480;6.834;2023-04-19T01:32:13;93778.25;;;21.85;38.38
48035;BME280;33812;46.480;6.834;2023-04-19T01:36:15;93771.16;;;21.84;38.36
48035;BME280;33812;46.480;6.834;2023-04-19T01:40:18;93769.63;;;21.83;38.30
48035;BME280;33812;46.480;6.834;2023-04-19T01:44:20;93771.50;;;21.86;38.09
48035;BME280;33812;46.480;6.834;2023-04-19T01:48:22;93765.63;;;21.84;38.18
48035;BME280;33812;46.480;6.834;2023-04-19T01:52:24;93760.88;;;21.84;38.25
48035;BME280;33812;46.480;6.834;2023-04-19T01:56:27;93773.63;;;21.82;38.23
48035;BME280;33812;46.480;6.834;2023-04-19T02:00:29;93765.53;;;21.88;38.36
48035;BME280;33812;46.480;6.834;2023-04-19T02:04:32;93769.06;;;21.88;38.16
48035;BME280;33812;46.480;6.834;2023-04-19T02:08:34;93771.50;;;21.86;38.21
48035;BME280;33812;46.480;6.834;2023-04-19T02:12:39;93769.63;;;21.83;38.16
48035;BME280;33812;46.480;6.834;2023-04-19T02:16:42;93773.63;;;21.82;37.95
48035;BME280;33812;46.480;6.834;2023-04-19T02:20:43;93770.06;;;21.81;38.01
48035;BME280;33812;46.480;6.834;2023-04-19T02:24:46;93771.28;;;21.80;37.99
48035;BME280;33812;46.480;6.834;2023-04-19T02:28:50;93770.84;;;21.82;38.03
48035;BME280;33812;46.480;6.834;2023-04-19T02:32:52;93772.06;;;21.81;37.83
48035;BME280;33812;46.480;6.834;2023-04-19T02:36:54;93771.69;;;21.79;37.75
48035;BME280;33812;46.480;6.834;2023-04-19T02:40:56;93769.81;;;21.76;37.87
48035;BME280;33812;46.480;6.834;2023-04-19T02:45:01;93767.81;;;21.76;37.76
48035;BME280;33812;46.480;6.834;2023-04-19T02:49:03;93765.84;;;21.77;37.58
48035;BME280;33812;46.480;6.834;2023-04-19T02:53:04;93775.34;;;21.76;37.57
48035;BME280;33812;46.480;6.834;2023-04-19T02:57:06;93776.56;;;21.74;37.69
48035;BME280;33812;46.480;6.834;2023-04-19T03:01:09;93774.56;;;21.75;37.63
48035;BME280;33812;46.480;6.834;2023-04-19T03:05:11;93778.22;;;21.72;37.58
48035;BME280;33812;46.480;6.834;2023-04-19T03:09:13;93780.22;;;21.71;37.58
48035;BME280;33812;46.480;6.834;2023-04-19T03:17:17;93765.28;;;21.69;37.49
48035;BME280;33812;46.480;6.834;2023-04-19T03:21:19;93769.91;;;21.72;37.52
48035;BME280;33812;46.480;6.834;2023-04-19T03:25:21;93769.56;;;21.70;37.43
48035;BME280;33812;46.480;6.834;2023-04-19T03:29:23;93770.03;;;21.68;37.40
48035;BME280;33812;46.480;6.834;2023-04-19T03:33:26;93775.66;;;21.65;37.39
48035;BME280;33812;46.480;6.834;2023-04-19T03:37:28;93774.00;;;21.67;37.42
48035;BME280;33812;46.480;6.834;2023-04-19T03:41:29;93772.47;;;21.66;37.33
48035;BME280;33812;46.480;6.834;2023-04-19T03:45:31;93778.75;;;21.67;37.35
48035;BME280;33812;46.480;6.834;2023-04-19T03:49:34;93780.78;;;21.66;37.40
48035;BME280;33812;46.480;6.834;2023-04-19T03:53:36;93778.00;;;21.66;37.30
48035;BME280;33812;46.480;6.834;2023-04-19T03:57:38;93766.59;;;21.64;37.23
48035;BME280;33812;46.480;6.834;2023-04-19T04:01:40;93760.63;;;21.66;37.23
48035;BME280;33812;46.480;6.834;2023-04-19T04:05:43;93769.38;;;21.64;37.16
48035;BME280;33812;46.480;6.834;2023-04-19T04:09:45;93766.59;;;21.64;37.19
48035;BME280;33812;46.480;6.834;2023-04-19T04:13:47;93763.50;;;21.62;37.13
48035;BME280;33812;46.480;6.834;2023-04-19T04:17:50;93765.81;;;21.64;37.09
48035;BME280;33812;46.480;6.834;2023-04-19T04:21:53;93764.28;;;21.62;37.11
48035;BME280;33812;46.480;6.834;2023-04-19T04:25:58;93768.25;;;21.61;37.16
48035;BME280;33812;46.480;6.834;2023-04-19T04:30:01;93766.28;;;21.62;36.92
48035;BME280;33812;46.480;6.834;2023-04-19T04:34:03;93779.75;;;21.60;37.04
48035;BME280;33812;46.480;6.834;2023-04-19T04:38:07;93776.53;;;21.61;37.14
48035;BME280;33812;46.480;6.834;2023-04-19T04:42:09;93773.03;;;21.61;36.96
48035;BME280;33812;46.480;6.834;2023-04-19T04:46:11;93771.81;;;21.62;36.88
48035;BME280;33812;46.480;6.834;2023-04-19T04:50:13;93776.44;;;21.65;36.83
48035;BME280;33812;46.480;6.834;2023-04-19T04:54:16;93777.88;;;21.57;36.93
48035;BME280;33812;46.480;6.834;2023-04-19T04:58:18;93784.50;;;21.59;36.61
48035;BME280;33812;46.480;6.834;2023-04-19T05:02:20;93773.22;;;21.67;36.85
48035;BME280;33812;46.480;6.834;2023-04-19T05:06:23;93789.47;;;20.96;34.68
48035;BME280;33812;46.480;6.834;2023-04-19T05:10:26;93787.72;;;21.45;36.09
48035;BME280;33812;46.480;6.834;2023-04-19T05:14:28;93789.16;;;21.49;36.45
48035;BME280;33812;46.480;6.834;2023-04-19T05:18:30;93775.22;;;21.53;36.33
48035;BME280;33812;46.480;6.834;2023-04-19T05:22:31;93779.41;;;21.58;36.02
48035;BME280;33812;46.480;6.834;2023-04-19T05:26:34;93777.34;;;21.62;36.30
48035;BME280;33812;46.480;6.834;2023-04-19T05:30:36;93778.78;;;21.54;36.25
48035;BME280;33812;46.480;6.834;2023-04-19T05:34:38;93774.09;;;21.50;36.20
48035;BME280;33812;46.480;6.834;2023-04-19T05:38:40;93779.75;;;21.60;36.15
48035;BME280;33812;46.480;6.834;2023-04-19T05:42:43;93781.63;;;21.63;36.45
48035;BME280;33812;46.480;6.834;2023-04-19T05:46:45;93780.66;;;21.57;36.73
48035;BME280;33812;46.480;6.834;2023-04-19T05:50:46;93779.88;;;21.56;36.72
48035;BME280;33812;46.480;6.834;2023-04-19T05:54:48;93779.75;;;21.60;36.53
48035;BME280;33812;46.480;6.834;2023-04-19T05:58:51;93782.75;;;21.66;36.53
48035;BME280;33812;46.480;6.834;2023-04-19T06:02:55;93778.00;;;21.66;37.43
48035;BME280;33812;46.480;6.834;2023-04-19T06:06:56;93772.91;;;21.65;37.19
48035;BME280;33812;46.480;6.834;2023-04-19T06:10:58;93785.88;;;21.68;37.11
48035;BME280;33812;46.480;6.834;2023-04-19T06:15:02;93783.53;;;21.66;37.36
48035;BME280;33812;46.480;6.834;2023-04-19T06:19:04;93790.28;;;21.65;37.31
48035;BME280;33812;46.480;6.834;2023-04-19T06:23:05;93791.50;;;21.64;37.47
48035;BME280;33812;46.480;6.834;2023-04-19T06:27:07;93796.59;;;21.66;37.29
48035;BME280;33812;46.480;6.834;2023-04-19T06:31:10;93797.03;;;21.64;37.15
48035;BME280;33812;46.480;6.834;2023-04-19T06:35:13;93794.59;;;21.66;37.14
48035;BME280;33812;46.480;6.834;2023-04-19T06:39:14;93801.69;;;21.67;37.07
48035;BME280;33812;46.480;6.834;2023-04-19T06:43:16;93799.69;;;21.68;37.26
48035;BME280;33812;46.480;6.834;2023-04-19T06:47:19;93812.19;;;21.72;37.18
48035;BME280;33812;46.480;6.834;2023-04-19T06:51:21;93801.47;;;21.74;37.00
48035;BME280;33812;46.480;6.834;2023-04-19T06:55:23;93804.22;;;21.74;37.03
48035;BME280;33812;46.480;6.834;2023-04-19T06:59:25;93811.31;;;21.76;36.94
48035;BME280;33812;46.480;6.834;2023-04-19T07:03:29;93806.91;;;21.78;36.88
48035;BME280;33812;46.480;6.834;2023-04-19T07:07:30;93808.53;;;21.76;36.79
48035;BME280;33812;46.480;6.834;2023-04-19T07:11:32;93803.09;;;21.72;36.90
48035;BME280;33812;46.480;6.834;2023-04-19T07:15:34;93804.78;;;21.69;36.92
48035;BME280;33812;46.480;6.834;2023-04-19T07:19:37;93803.56;;;21.70;36.72
48035;BME280;33812;46.480;6.834;2023-04-19T07:23:39;93804.69;;;21.73;36.75
48035;BME280;33812;46.480;6.834;2023-04-19T07:27:41;93812.44;;;21.78;36.46
48035;BME280;33812;46.480;6.834;2023-04-19T07:31:42;93811.75;;;21.74;36.49
48035;BME280;33812;46.480;6.834;2023-04-19T07:35:46;93805.25;;;21.81;36.20
48035;BME280;33812;46.480;6.834;2023-04-19T07:39:47;93796.84;;;21.84;36.14
48035;BME280;33812;46.480;6.834;2023-04-19T07:43:49;93799.16;;;21.86;35.95
48035;BME280;33812;46.480;6.834;2023-04-19T07:47:51;93797.63;;;21.85;36.12
48035;BME280;33812;46.480;6.834;2023-04-19T07:51:54;93797.97;;;21.87;36.02
48035;BME280;33812;46.480;6.834;2023-04-19T07:55:56;93796.06;;;21.84;36.03
48035;BME280;33812;46.480;6.834;2023-04-19T07:59:57;93792.44;;;21.87;36.29
48035;BME280;33812;46.480;6.834;2023-04-19T08:03:59;93796.41;;;21.86;36.06
48035;BME280;33812;46.480;6.834;2023-04-19T08:08:02;93798.81;;;21.84;36.13
48035;BME280;33812;46.480;6.834;2023-04-19T08:12:05;93806.38;;;21.83;36.17
48035;BME280;33812;46.480;6.834;2023-04-19T08:16:06;93793.28;;;21.84;36.28
48035;BME280;33812;46.480;6.834;2023-04-19T08:20:09;93799.59;;;21.84;36.39
48035;BME280;33812;46.480;6.834;2023-04-19T08:24:13;93805.94;;;21.85;36.42
48035;BME280;33812;46.480;6.834;2023-04-19T08:28:16;93803.16;;;21.85;36.27
48035;BME280;33812;46.480;6.834;2023-04-19T08:32:18;93802.72;;;21.86;36.33
48035;BME280;33812;46.480;6.834;2023-04-19T08:36:20;93799.16;;;21.86;36.31
48035;BME280;33812;46.480;6.834;2023-04-19T08:40:23;93800.72;;;21.87;36.46
48035;BME280;33812;46.480;6.834;2023-04-19T08:44:25;93788.88;;;21.86;36.41
48035;BME280;33812;46.480;6.834;2023-04-19T08:48:28;93791.19;;;21.88;36.35
48035;BME280;33812;46.480;6.834;2023-04-19T08:52:32;93796.75;;;21.88;36.39
48035;BME280;33812;46.480;6.834;2023-04-19T08:56:35;93798.28;;;21.89;36.41
48035;BME280;33812;46.480;6.834;2023-04-19T09:00:38;93800.28;;;21.89;36.25
48035;BME280;33812;46.480;6.834;2023-04-19T09:04:40;93792.31;;;21.91;36.05
48035;BME280;33812;46.480;6.834;2023-04-19T09:08:42;93800.94;;;21.93;38.43
48035;BME280;33812;46.480;6.834;2023-04-19T09:12:59;93790.66;;;21.93;39.94
48035;BME280;33812;46.480;6.834;2023-04-19T09:17:11;93789.00;;;21.96;39.59
48035;BME280;33812;46.480;6.834;2023-04-19T09:21:26;93789.00;;;21.96;39.41
48035;BME280;33812;46.480;6.834;2023-04-19T09:25:28;93790.53;;;21.97;38.87
48035;BME280;33812;46.480;6.834;2023-04-19T09:29:31;93778.69;;;21.96;38.92
48035;BME280;33812;46.480;6.834;2023-04-19T09:33:34;93778.56;;;22.00;38.64
48035;BME280;33812;46.480;6.834;2023-04-19T09:37:38;93768.75;;;21.99;38.50
48035;BME280;33812;46.480;6.834;2023-04-19T09:41:50;93767.50;;;22.00;38.35
48035;BME280;33812;46.480;6.834;2023-04-19T09:45:54;93768.28;;;22.01;37.94
48035;BME280;33812;46.480;6.834;2023-04-19T09:50:06;93770.28;;;22.00;37.73
48035;BME280;33812;46.480;6.834;2023-04-19T09:54:09;93765.09;;;22.02;37.90
48035;BME280;33812;46.480;6.834;2023-04-19T09:58:11;93755.53;;;22.03;37.58
48035;BME280;33812;46.480;6.834;2023-04-19T10:02:14;93751.56;;;22.04;37.93
48035;BME280;33812;46.480;6.834;2023-04-19T10:06:18;93750.78;;;22.04;37.74
48035;BME280;33812;46.480;6.834;2023-04-19T10:10:20;93745.16;;;22.07;37.62
48035;BME280;33812;46.480;6.834;2023-04-19T10:14:23;93745.94;;;22.08;37.41
48035;BME280;33812;46.480;6.834;2023-04-19T10:18:26;93743.16;;;22.08;37.36
48035;BME280;33812;46.480;6.834;2023-04-19T10:22:28;93736.41;;;22.09;37.18
48035;BME280;33812;46.480;6.834;2023-04-19T10:31:19;93733.19;;;22.10;37.14
48035;BME280;33812;46.480;6.834;2023-04-19T10:35:26;93737.50;;;22.12;37.42
48035;BME280;33812;46.480;6.834;2023-04-19T10:39:38;93729.97;;;22.12;37.20
48035;BME280;33812;46.480;6.834;2023-04-19T10:43:43;93730.31;;;22.14;37.36
48035;BME280;33812;46.480;6.834;2023-04-19T10:47:45;93732.28;;;22.14;37.45
48035;BME280;33812;46.480;6.834;2023-04-19T10:51:49;93714.91;;;22.13;37.40
48035;BME280;33812;46.480;6.834;2023-04-19T10:55:54;93710.47;;;22.16;37.48
48035;BME280;33812;46.480;6.834;2023-04-19T11:00:19;93706.94;;;22.15;37.37
48035;BME280;33812;46.480;6.834;2023-04-19T11:04:23;93698.94;;;22.17;37.46
48035;BME280;33812;46.480;6.834;2023-04-19T11:08:28;93694.66;;;22.16;37.41
48035;BME280;33812;46.480;6.834;2023-04-19T11:12:30;93689.44;;;22.18;37.54
48035;BME280;33812;46.480;6.834;2023-04-19T11:16:32;93679.13;;;22.19;37.73
48035;BME280;33812;46.480;6.834;2023-04-19T11:20:33;93677.91;;;22.20;37.16
48035;BME280;33812;46.480;6.834;2023-04-19T11:24:37;93677.47;;;22.21;37.60
48035;BME280;33812;46.480;6.834;2023-04-19T11:28:38;93665.63;;;22.21;37.54
48035;BME280;33812;46.480;6.834;2023-04-19T11:32:44;93663.19;;;22.23;37.58
48035;BME280;33812;46.480;6.834;2023-04-19T11:36:49;93658.44;;;22.24;37.49
48035;BME280;33812;46.480;6.834;2023-04-19T11:40:58;93650.44;;;22.26;37.58
48035;BME280;33812;46.480;6.834;2023-04-19T11:45:01;93650.44;;;22.26;37.52
48035;BME280;33812;46.480;6.834;2023-04-19T11:49:03;93642.91;;;22.26;37.50
48035;BME280;33812;46.480;6.834;2023-04-19T11:53:12;93632.16;;;22.28;37.59
48035;BME280;33812;46.480;6.834;2023-04-19T11:57:26;93624.97;;;22.31;37.63
48035;BME280;33812;46.480;6.834;2023-04-19T12:01:28;93623.41;;;22.30;37.82
48035;BME280;33812;46.480;6.834;2023-04-19T12:05:31;93618.19;;;22.32;37.75
48035;BME280;33812;46.480;6.834;2023-04-19T12:09:34;93614.97;;;22.33;37.71
48035;BME280;33812;46.480;6.834;2023-04-19T12:13:37;93613.75;;;22.34;37.74
48035;BME280;33812;46.480;6.834;2023-04-19T12:17:55;93604.69;;;22.34;37.81
48035;BME280;33812;46.480;6.834;2023-04-19T12:22:06;93610.84;;;22.38;38.08
48035;BME280;33812;46.480;6.834;2023-04-19T12:26:08;93608.50;;;22.14;37.04
48035;BME280;33812;46.480;6.834;2023-04-19T12:30:12;93603.78;;;22.02;35.65
48035;BME280;33812;46.480;6.834;2023-04-19T12:34:14;93607.47;;;21.98;35.26
48035;BME280;33812;46.480;6.834;2023-04-19T12:38:16;93598.38;;;21.98;35.24
48035;BME280;33812;46.480;6.834;2023-04-19T12:42:18;93594.53;;;21.95;35.64
48035;BME280;33812;46.480;6.834;2023-04-19T12:46:21;93593.13;;;21.91;35.59
48035;BME280;33812;46.480;6.834;2023-04-19T12:50:23;93587.38;;;21.85;35.79
48035;BME280;33812;46.480;6.834;2023-04-19T12:54:24;93571.44;;;21.76;35.75
48035;BME280;33812;46.480;6.834;2023-04-19T12:58:26;93573.88;;;21.87;35.47
48035;BME280;33812;46.480;6.834;2023-04-19T13:02:29;93566.31;;;21.88;35.53
48035;BME280;33812;46.480;6.834;2023-04-19T13:06:31;93555.25;;;21.88;35.66
48035;BME280;33812;46.480;6.834;2023-04-19T13:10:33;93551.91;;;21.93;35.74
48035;BME280;33812;46.480;6.834;2023-04-19T13:14:34;93543.31;;;21.91;35.67
48035;BME280;33812;46.480;6.834;2023-04-19T13:18:38;93549.41;;;21.85;36.11
48035;BME280;33812;46.480;6.834;2023-04-19T13:22:39;93535.88;;;21.88;35.38
48035;BME280;33812;46.480;6.834;2023-04-19T13:26:41;93528.16;;;21.82;35.74
48035;BME280;33812;46.480;6.834;2023-04-19T13:30:45;93525.16;;;21.90;35.63
48035;BME280;33812;46.480;6.834;2023-04-19T13:34:48;93513.88;;;21.84;35.77
48035;BME280;33812;46.480;6.834;2023-04-19T13:38:50;93516.44;;;21.78;35.58
48035;BME280;33812;46.480;6.834;2023-04-19T13:42:51;93505.94;;;21.73;36.12
48035;BME280;33812;46.480;6.834;2023-04-19T13:46:54;93498.72;;;21.76;36.36
48035;BME280;33812;46.480;6.834;2023-04-19T13:50:58;93494.31;;;21.78;36.18
48035;BME280;33812;46.480;6.834;2023-04-19T13:54:59;93489.53;;;21.79;36.23
48035;BME280;33812;46.480;6.834;2023-04-19T13:59:01;93483.03;;;21.72;36.12
48035;BME280;33812;46.480;6.834;2023-04-19T14:03:03;93471.31;;;21.68;36.14
48035;BME280;33812;46.480;6.834;2023-04-19T14:07:06;93461.56;;;21.77;35.89
48035;BME280;33812;46.480;6.834;2023-04-19T14:11:09;93467.97;;;21.73;35.91
48035;BME280;33812;46.480;6.834;2023-04-19T14:15:11;93451.25;;;21.77;36.09
48035;BME280;33812;46.480;6.834;2023-04-19T14:19:13;93443.66;;;21.68;35.72
48035;BME280;33812;46.480;6.834;2023-04-19T14:23:16;93444.19;;;21.76;35.95
48035;BME280;33812;46.480;6.834;2023-04-19T14:27:18;93437.09;;;21.75;36.03
48035;BME280;33812;46.480;6.834;2023-04-19T14:31:19;93441.09;;;21.74;35.91
48035;BME280;33812;46.480;6.834;2023-04-19T14:35:21;93441.88;;;21.74;36.12
48035;BME280;33812;46.480;6.834;2023-04-19T14:39:24;93424.72;;;21.80;36.15
48035;BME280;33812;46.480;6.834;2023-04-19T14:43:26;93418.63;;;21.85;36.07
48035;BME280;33812;46.480;6.834;2023-04-19T14:47:28;93410.31;;;21.85;36.27
48035;BME280;33812;46.480;6.834;2023-04-19T14:51:32;93411.53;;;21.84;36.21
48035;BME280;33812;46.480;6.834;2023-04-19T14:55:37;93402.03;;;21.85;36.11
48035;BME280;33812;46.480;6.834;2023-04-19T14:59:39;93402.03;;;21.85;36.07
48035;BME280;33812;46.480;6.834;2023-04-19T15:03:40;93400.34;;;21.88;35.87
48035;BME280;33812;46.480;6.834;2023-04-19T15:07:42;93386.94;;;21.86;36.04
48035;BME280;33812;46.480;6.834;2023-04-19T15:11:45;93393.13;;;21.90;36.03
48035;BME280;33812;46.480;6.834;2023-04-19T15:15:47;93387.88;;;21.83;35.96
48035;BME280;33812;46.480;6.834;2023-04-19T15:19:48;93388.97;;;21.85;35.89
48035;BME280;33812;46.480;6.834;2023-04-19T15:23:50;93385.22;;;21.79;36.02
48035;BME280;33812;46.480;6.834;2023-04-19T15:27:54;93380.13;;;21.78;35.93
48035;BME280;33812;46.480;6.834;2023-04-19T15:31:56;93373.13;;;21.86;35.92
48035;BME280;33812;46.480;6.834;2023-04-19T15:35:58;93372.19;;;21.80;36.22
48035;BME280;33812;46.480;6.834;2023-04-19T15:40:00;93370.16;;;21.80;36.15
48035;BME280;33812;46.480;6.834;2023-04-19T15:44:03;93372.03;;;21.83;36.73
48035;BME280;33812;46.480;6.834;2023-04-19T15:48:05;93370.34;;;21.86;37.22
48035;BME280;33812;46.480;6.834;2023-04-19T15:52:07;93367.47;;;21.90;37.28
48035;BME280;33812;46.480;6.834;2023-04-19T15:56:09;93374.03;;;21.83;37.14
48035;BME280;33812;46.480;6.834;2023-04-19T16:00:13;93364.81;;;21.86;37.36
48035;BME280;33812;46.480;6.834;2023-04-19T16:04:15;93356.97;;;21.84;37.72
48035;BME280;33812;46.480;6.834;2023-04-19T16:08:17;93364.63;;;21.80;37.73
48035;BME280;33812;46.480;6.834;2023-04-19T16:12:19;93373.13;;;21.86;37.67
48035;BME280;33812;46.480;6.834;2023-04-19T16:16:22;93375.75;;;21.90;37.78
48035;BME280;33812;46.480;6.834;2023-04-19T16:20:26;93376.47;;;21.81;37.68
48035;BME280;33812;46.480;6.834;2023-04-19T16:24:27;93380.25;;;21.96;38.03
48035;BME280;33812;46.480;6.834;2023-04-19T16:28:29;93379.84;;;22.07;37.94
48035;BME280;33812;46.480;6.834;2023-04-19T16:32:32;93373.41;;;22.10;37.67
48035;BME280;33812;46.480;6.834;2023-04-19T16:36:34;93370.81;;;22.16;38.20
48035;BME280;33812;46.480;6.834;2023-04-19T16:40:36;93373.91;;;22.18;38.03
48035;BME280;33812;46.480;6.834;2023-04-19T16:44:37;93377.00;;;22.20;37.87
48035;BME280;33812;46.480;6.834;2023-04-19T16:48:41;93373.44;;;22.20;37.32
48035;BME280;33812;46.480;6.834;2023-04-19T16:52:42;93371.13;;;22.18;37.16
48035;BME280;33812;46.480;6.834;2023-04-19T16:56:44;93374.19;;;22.11;37.30
48035;BME280;33812;46.480;6.834;2023-04-19T17:00:46;93361.72;;;22.06;37.87
48035;BME280;33812;46.480;6.834;2023-04-19T17:04:49;93359.88;;;22.13;37.42
48035;BME280;33812;46.480;6.834;2023-04-19T17:08:51;93360.81;;;22.19;37.10
48035;BME280;33812;46.480;6.834;2023-04-19T17:12:52;93353.75;;;22.18;36.66
48035;BME280;33812;46.480;6.834;2023-04-19T17:16:55;93349.47;;;22.17;36.63
48035;BME280;33812;46.480;6.834;2023-04-19T17:20:58;93349.13;;;22.15;36.43
48035;BME280;33812;46.480;6.834;2023-04-19T17:25:00;93348.69;;;22.16;37.02
48035;BME280;33812;46.480;6.834;2023-04-19T17:29:02;93351.00;;;22.18;36.96
48035;BME280;33812;46.480;6.834;2023-04-19T17:33:04;93355.59;;;22.12;37.01
48035;BME280;33812;46.480;6.834;2023-04-19T17:37:08;93342.50;;;22.12;36.92
48035;BME280;33812;46.480;6.834;2023-04-19T17:41:12;93340.38;;;22.16;37.03
48035;BME280;33812;46.480;6.834;2023-04-19T17:45:16;93341.44;;;22.19;37.42
48035;BME280;33812;46.480;6.834;2023-04-19T17:49:19;93338.94;;;22.02;37.05
48035;BME280;33812;46.480;6.834;2023-04-19T17:53:25;93337.44;;;22.10;37.18
48035;BME280;33812;46.480;6.834;2023-04-19T17:57:27;93337.09;;;21.99;36.92
48035;BME280;33812;46.480;6.834;2023-04-19T18:01:29;93343.09;;;22.07;37.07
48035;BME280;33812;46.480;6.834;2023-04-19T18:05:31;93343.81;;;21.98;37.19
48035;BME280;33812;46.480;6.834;2023-04-19T18:09:34;93347.50;;;21.95;36.89
48035;BME280;33812;46.480;6.834;2023-04-19T18:13:36;93344.00;;;22.04;37.41
48035;BME280;33812;46.480;6.834;2023-04-19T18:17:38;93338.16;;;22.02;36.99
48035;BME280;33812;46.480;6.834;2023-04-19T18:21:40;93333.63;;;21.85;36.62
48035;BME280;33812;46.480;6.834;2023-04-19T18:25:51;93338.06;;;21.83;37.01
48035;BME280;33812;46.480;6.834;2023-04-19T18:29:53;93342.63;;;21.99;37.36
48035;BME280;33812;46.480;6.834;2023-04-19T18:33:54;93345.78;;;21.88;36.83
48035;BME280;33812;46.480;6.834;2023-04-19T18:37:56;93342.09;;;21.91;37.30
48035;BME280;33812;46.480;6.834;2023-04-19T18:41:59;93343.53;;;21.96;37.11
48035;BME280;33812;46.480;6.834;2023-04-19T18:46:02;93343.66;;;21.92;36.83
48035;BME280;33812;46.480;6.834;2023-04-19T18:50:05;93346.72;;;21.94;37.02
48035;BME280;33812;46.480;6.834;2023-04-19T18:54:07;93350.72;;;21.93;36.76
48035;BME280;33812;46.480;6.834;2023-04-19T18:58:10;93350.41;;;21.91;37.04
48035;BME280;33812;46.480;6.834;2023-04-19T19:02:14;93343.66;;;21.70;36.90
48035;BME280;33812;46.480;6.834;2023-04-19T19:06:16;93355.59;;;21.80;37.14
48035;BME280;33812;46.480;6.834;2023-04-19T19:10:19;93355.53;;;22.02;40.06
48035;BME280;33812;46.480;6.834;2023-04-19T19:14:22;93359.75;;;22.16;39.93
48035;BME280;33812;46.480;6.834;2023-04-19T19:18:24;93363.91;;;22.21;40.23
48035;BME280;33812;46.480;6.834;2023-04-19T19:22:26;93355.94;;;22.23;40.56
48035;BME280;33812;46.480;6.834;2023-04-19T19:26:28;93371.31;;;22.24;40.67
48035;BME280;33812;46.480;6.834;2023-04-19T19:30:44;93369.00;;;22.22;41.08
48035;BME280;33812;46.480;6.834;2023-04-19T19:34:49;93357.91;;;22.22;41.61
48035;BME280;33812;46.480;6.834;2023-04-19T19:38:52;93357.91;;;22.22;41.79
48035;BME280;33812;46.480;6.834;2023-04-19T19:42:53;93358.22;;;22.25;41.65
48035;BME280;33812;46.480;6.834;2023-04-19T19:46:56;93352.56;;;22.28;41.64
48035;BME280;33812;46.480;6.834;2023-04-19T19:50:58;93358.41;;;22.30;42.07
48035;BME280;33812;46.480;6.834;2023-04-19T19:55:01;93352.09;;;22.30;42.21
48035;BME280;33812;46.480;6.834;2023-04-19T19:59:03;93343.78;;;22.30;42.36
48035;BME280;33812;46.480;6.834;2023-04-19T20:03:06;93345.34;;;22.31;42.27
48035;BME280;33812;46.480;6.834;2023-04-19T20:07:11;93339.81;;;22.31;42.33
48035;BME280;33812;46.480;6.834;2023-04-19T20:11:12;93340.72;;;22.28;42.54
48035;BME280;33812;46.480;6.834;2023-04-19T20:15:14;93337.94;;;22.28;42.36
48035;BME280;33812;46.480;6.834;2023-04-19T20:19:19;93334.72;;;22.29;42.08
48035;BME280;33812;46.480;6.834;2023-04-19T20:23:22;93337.19;;;22.27;41.38
48035;BME280;33812;46.480;6.834;2023-04-19T20:27:24;93333.31;;;22.25;40.17
48035;BME280;33812;46.480;6.834;2023-04-19T20:31:26;93329.34;;;22.26;39.91
48035;BME280;33812;46.480;6.834;2023-04-19T20:35:29;93328.88;;;22.27;39.92
48035;BME280;33812;46.480;6.834;2023-04-19T20:39:33;93329.34;;;22.26;40.36
48035;BME280;33812;46.480;6.834;2023-04-19T20:43:35;93328.44;;;22.29;40.29
48035;BME280;33812;46.480;6.834;2023-04-19T20:47:38;93334.88;;;22.26;40.49
48035;BME280;33812;46.480;6.834;2023-04-19T20:51:41;93328.56;;;22.25;40.69
48035;BME280;33812;46.480;6.834;2023-04-19T20:55:45;93322.25;;;22.25;40.79
48035;BME280;33812;46.480;6.834;2023-04-19T20:59:46;93315.78;;;22.28;40.64
48035;BME280;33812;46.480;6.834;2023-04-19T21:03:49;93305.66;;;22.25;40.94
48035;BME280;33812;46.480;6.834;2023-04-19T21:07:52;93304.44;;;22.26;40.61
48035;BME280;33812;46.480;6.834;2023-04-19T21:11:54;93302.88;;;22.25;40.70
48035;BME280;33812;46.480;6.834;2023-04-19T21:15:55;93296.88;;;22.26;40.28
48035;BME280;33812;46.480;6.834;2023-04-19T21:19:57;93301.66;;;22.26;40.44
48035;BME280;33812;46.480;6.834;2023-04-19T21:24:00;93304.72;;;22.28;40.50
48035;BME280;33812;46.480;6.834;2023-04-19T21:28:02;93294.25;;;22.22;40.68
48035;BME280;33812;46.480;6.834;2023-04-19T21:32:05;93295.03;;;22.23;40.43
48035;BME280;33812;46.480;6.834;2023-04-19T21:36:07;93288.25;;;22.24;40.42